createdAt,value
2023-04-29T00:01:46.442Z,15.67
2023-04-29T00:04:18.638Z,17.00
2023-04-29T00:06:51.376Z,19.67
2023-04-29T00:09:23.267Z,17.00
2023-04-29T00:11:55.862Z,17.00
2023-04-29T00:14:27.639Z,17.50
2023-04-29T00:17:00.174Z,17.50
2023-04-29T00:19:32.164Z,17.00
2023-04-29T00:22:04.064Z,18.50
2023-04-29T00:24:36.345Z,16.00
2023-04-29T00:27:09.328Z,18.00
2023-04-29T00:29:44.025Z,21.33
2023-04-29T00:32:16.651Z,24.33
2023-04-29T00:34:48.668Z,17.67
2023-04-29T00:37:20.971Z,18.50
2023-04-29T00:39:52.959Z,17.00
2023-04-29T00:42:25.946Z,19.00
2023-04-29T00:44:54.962Z,20.67
2023-04-29T00:47:23.302Z,19.67
2023-04-29T00:49:51.854Z,17.50
2023-04-29T00:52:21.152Z,18.00
2023-04-29T00:54:51.251Z,19.33
2023-04-29T00:57:20.700Z,18.00
2023-04-29T00:59:51.914Z,17.75
2023-04-29T01:02:20.333Z,18.00
2023-04-29T01:04:48.927Z,16.00
2023-04-29T01:07:35.250Z,19.00
2023-04-29T01:10:15.937Z,19.00
2023-04-29T01:13:00.803Z,17.00
2023-04-29T01:15:40.917Z,18.00
2023-04-29T01:18:25.973Z,17.50
2023-04-29T01:20:58.719Z,19.33
2023-04-29T01:23:31.910Z,18.00
2023-04-29T01:26:05.887Z,20.00
2023-04-29T01:28:58.874Z,26.00
2023-04-29T01:31:47.241Z,25.50
2023-04-29T01:34:40.734Z,19.67
2023-04-29T01:38:16.890Z,23.00
2023-04-29T01:41:20.790Z,23.67
2023-04-29T01:43:56.970Z,22.33
2023-04-29T01:46:28.884Z,21.67
2023-04-29T01:49:01.542Z,21.33
2023-04-29T01:51:34.375Z,21.67
2023-04-29T01:54:07.159Z,20.00
2023-04-29T01:56:38.963Z,18.67
2023-04-29T01:59:12.120Z,19.33
2023-04-29T02:01:44.054Z,17.00
2023-04-29T02:04:15.923Z,18.33
2023-04-29T02:06:48.791Z,18.67
2023-04-29T02:09:20.637Z,19.00
2023-04-29T02:11:53.330Z,18.67
2023-04-29T02:14:25.130Z,18.67
2023-04-29T02:16:56.972Z,18.00
2023-04-29T02:19:28.794Z,20.33
2023-04-29T02:22:01.441Z,20.33
2023-04-29T02:24:33.214Z,16.67
2023-04-29T02:27:07.057Z,18.00
2023-04-29T02:29:39.661Z,19.00
2023-04-29T02:32:11.839Z,17.00
2023-04-29T02:34:43.901Z,18.00
2023-04-29T02:37:16.043Z,16.00
2023-04-29T02:39:47.904Z,16.50
2023-04-29T02:42:20.944Z,19.00
2023-04-29T02:44:52.717Z,20.00
2023-04-29T02:47:24.925Z,18.00
2023-04-29T02:49:57.573Z,18.67
2023-04-29T02:52:29.380Z,18.00
2023-04-29T02:55:01.188Z,16.50
2023-04-29T02:57:33.647Z,19.00
2023-04-29T03:00:06.085Z,17.00
2023-04-29T03:02:38.105Z,17.00
2023-04-29T03:05:10.503Z,18.00
2023-04-29T03:07:42.456Z,16.00
2023-04-29T03:10:14.509Z,16.00
2023-04-29T03:12:46.412Z,19.00
2023-04-29T03:15:18.346Z,17.00
2023-04-29T03:17:50.207Z,16.00
2023-04-29T03:20:22.150Z,16.00
2023-04-29T03:22:53.972Z,12.50
2023-04-29T03:25:25.926Z,17.00
2023-04-29T03:27:57.764Z,19.00
2023-04-29T03:30:29.563Z,15.50
2023-04-29T03:33:00.879Z,17.00
2023-04-29T03:35:32.843Z,15.50
2023-04-29T03:38:04.762Z,17.00
2023-04-29T03:40:37.616Z,17.67
2023-04-29T03:43:09.656Z,19.67
2023-04-29T03:45:41.546Z,18.00
2023-04-29T03:48:13.612Z,18.50
2023-04-29T03:50:46.351Z,17.67
2023-04-29T03:53:19.152Z,19.00
2023-04-29T03:55:51.568Z,17.67
2023-04-29T03:58:24.021Z,17.00
2023-04-29T04:00:56.570Z,19.00
2023-04-29T04:03:28.706Z,17.00
2023-04-29T04:06:00.781Z,15.00
2023-04-29T04:08:32.656Z,17.50
2023-04-29T04:11:04.947Z,17.00
2023-04-29T04:13:37.459Z,18.00
2023-04-29T04:16:11.318Z,19.00
2023-04-29T04:18:43.707Z,17.00
2023-04-29T04:21:17.094Z,18.00
2023-04-29T04:23:48.871Z,17.33
2023-04-29T04:26:20.849Z,16.00
2023-04-29T04:28:53.053Z,16.50
2023-04-29T04:31:25.615Z,17.00
2023-04-29T04:33:58.114Z,17.00
2023-04-29T04:36:30.182Z,17.00
2023-04-29T04:39:02.971Z,18.67
2023-04-29T04:41:34.828Z,18.00
2023-04-29T04:44:07.425Z,15.00
2023-04-29T04:46:40.267Z,16.00
2023-04-29T04:49:12.189Z,18.50
2023-04-29T04:51:45.004Z,18.50
2023-04-29T04:54:16.959Z,25.00
2023-04-29T04:56:52.425Z,28.00
2023-04-29T04:59:25.176Z,25.00
2023-04-29T05:01:57.853Z,28.67
2023-04-29T05:04:29.892Z,19.00
2023-04-29T05:07:01.884Z,18.00
2023-04-29T05:09:34.583Z,19.33
2023-04-29T05:12:06.498Z,21.00
2023-04-29T05:14:38.351Z,17.00
2023-04-29T05:17:11.576Z,19.67
2023-04-29T05:19:43.359Z,16.33
2023-04-29T05:22:15.192Z,18.00
2023-04-29T05:24:51.871Z,19.33
2023-04-29T05:27:23.735Z,16.50
2023-04-29T05:29:55.931Z,15.00
2023-04-29T05:32:27.952Z,18.00
2023-04-29T05:34:59.797Z,18.00
2023-04-29T05:37:32.319Z,17.00
2023-04-29T05:40:05.152Z,20.00
2023-04-29T05:42:37.080Z,31.33
2023-04-29T05:45:10.381Z,34.00
2023-04-29T05:47:42.219Z,19.33
2023-04-29T05:50:15.120Z,21.00
2023-04-29T05:52:46.936Z,18.33
2023-04-29T05:55:18.904Z,18.00
2023-04-29T05:57:51.629Z,34.75
2023-04-29T06:00:23.703Z,29.00
2023-04-29T06:02:58.999Z,20.00
2023-04-29T06:05:31.791Z,33.50
2023-04-29T06:08:06.006Z,63.33
2023-04-29T06:10:38.736Z,32.00
2023-04-29T06:13:11.561Z,32.33
2023-04-29T06:15:43.558Z,23.00
2023-04-29T06:18:16.214Z,19.67
2023-04-29T06:20:48.076Z,21.00
2023-04-29T06:23:20.724Z,21.00
2023-04-29T06:25:53.430Z,25.00
2023-04-29T06:28:25.726Z,20.00
2023-04-29T06:30:58.381Z,24.00
2023-04-29T06:33:31.387Z,21.67
2023-04-29T06:36:03.239Z,16.50
2023-04-29T06:38:35.371Z,18.33
2023-04-29T06:41:07.993Z,32.00
2023-04-29T06:43:43.425Z,25.00
2023-04-29T06:46:15.413Z,19.00
2023-04-29T06:48:47.259Z,9.67
2023-04-29T06:51:19.042Z,17.67
2023-04-29T06:53:50.988Z,16.00
2023-04-29T06:56:24.057Z,17.00
2023-04-29T06:58:56.755Z,31.00
2023-04-29T07:01:29.496Z,30.33
2023-04-29T07:04:01.405Z,23.67
2023-04-29T07:06:33.325Z,20.00
2023-04-29T07:09:05.135Z,16.00
2023-04-29T07:11:37.038Z,16.00
2023-04-29T07:14:08.910Z,16.67
2023-04-29T07:16:41.666Z,21.67
2023-04-29T07:19:13.505Z,19.67
2023-04-29T07:21:45.362Z,14.00
2023-04-29T07:24:18.078Z,34.00
2023-04-29T07:26:49.971Z,21.00
2023-04-29T07:29:22.728Z,31.00
2023-04-29T07:31:55.342Z,26.00
2023-04-29T07:34:27.240Z,19.33
2023-04-29T07:36:59.817Z,18.67
2023-04-29T07:39:32.267Z,19.00
2023-04-29T07:42:05.184Z,23.33
2023-04-29T07:44:37.177Z,19.33
2023-04-29T07:47:09.976Z,19.33
2023-04-29T07:49:43.164Z,16.67
2023-04-29T07:52:15.819Z,21.33
2023-04-29T07:54:47.600Z,20.00
2023-04-29T07:57:20.239Z,24.00
2023-04-29T07:59:56.446Z,24.00
2023-04-29T08:02:29.302Z,19.00
2023-04-29T08:05:03.416Z,20.00
2023-04-29T08:07:36.471Z,20.00
2023-04-29T08:10:08.962Z,19.00
2023-04-29T08:12:39.870Z,21.00
2023-04-29T08:15:12.827Z,16.00
2023-04-29T08:17:44.784Z,18.33
2023-04-29T08:20:17.060Z,22.00
2023-04-29T08:22:48.841Z,17.00
2023-04-29T08:25:20.788Z,17.33
2023-04-29T08:27:51.837Z,36.00
2023-04-29T08:30:24.094Z,12.50
2023-04-29T08:32:55.098Z,16.00
2023-04-29T08:35:27.730Z,17.00
2023-04-29T08:37:59.486Z,17.00
2023-04-29T08:40:31.926Z,17.67
2023-04-29T08:43:05.494Z,17.33
2023-04-29T08:45:39.868Z,18.00
2023-04-29T08:48:12.154Z,27.67
2023-04-29T08:50:46.921Z,18.67
2023-04-29T08:53:19.067Z,28.67
2023-04-29T08:55:52.244Z,19.00
2023-04-29T08:58:26.813Z,16.00
2023-04-29T09:00:59.081Z,20.00
2023-04-29T09:03:43.685Z,23.33
2023-04-29T09:06:15.995Z,18.00
2023-04-29T09:08:48.270Z,19.67
2023-04-29T09:11:21.017Z,27.33
2023-04-29T09:13:52.809Z,23.00
2023-04-29T09:16:25.506Z,15.00
2023-04-29T09:18:57.776Z,15.33
2023-04-29T09:21:32.520Z,15.00
2023-04-29T09:24:07.254Z,16.33
2023-04-29T09:26:48.169Z,16.33
2023-04-29T09:29:20.675Z,14.67
2023-04-29T09:31:59.040Z,21.00
2023-04-29T09:34:41.100Z,14.50
2023-04-29T09:37:29.200Z,19.67
2023-04-29T09:40:01.383Z,15.33
2023-04-29T09:42:42.272Z,14.00
2023-04-29T09:45:14.102Z,15.67
2023-04-29T09:47:47.036Z,18.67
2023-04-29T09:50:20.046Z,14.67
2023-04-29T09:52:51.879Z,14.00
2023-04-29T09:55:23.784Z,18.00
2023-04-29T09:57:56.034Z,14.50
2023-04-29T10:00:31.823Z,13.00
2023-04-29T10:03:06.003Z,15.50
2023-04-29T10:05:39.110Z,16.67
2023-04-29T10:08:10.942Z,17.00
2023-04-29T10:10:43.183Z,14.50
2023-04-29T10:13:14.280Z,14.00
2023-04-29T10:16:30.027Z,13.00
2023-04-29T10:19:08.578Z,13.67
2023-04-29T10:21:41.364Z,12.00
2023-04-29T10:24:15.745Z,16.33
2023-04-29T10:26:48.355Z,15.67
2023-04-29T10:29:21.882Z,14.00
2023-04-29T10:31:55.784Z,13.33
2023-04-29T10:34:29.340Z,14.00
2023-04-29T10:37:01.510Z,15.00
2023-04-29T10:39:50.916Z,14.00
2023-04-29T10:42:48.382Z,12.00
2023-04-29T10:45:32.895Z,16.33
2023-04-29T10:48:10.846Z,12.00
2023-04-29T10:50:51.648Z,14.00
2023-04-29T10:53:24.155Z,13.00
2023-04-29T10:56:06.817Z,13.67
2023-04-29T10:58:44.256Z,19.33
2023-04-29T11:01:29.227Z,11.33
2023-04-29T11:04:05.779Z,12.50
2023-04-29T11:06:41.765Z,13.00
2023-04-29T11:09:19.255Z,12.33
2023-04-29T11:12:01.776Z,14.00
2023-04-29T11:14:36.966Z,12.00
2023-04-29T11:17:23.682Z,12.00
2023-04-29T11:19:57.429Z,12.00
2023-04-29T11:22:31.073Z,12.00
2023-04-29T11:25:11.950Z,10.00
2023-04-29T11:27:46.505Z,11.00
2023-04-29T11:30:17.946Z,11.00
2023-04-29T11:32:52.179Z,10.67
2023-04-29T11:35:24.108Z,12.00
2023-04-29T11:37:56.766Z,9.00
2023-04-29T11:40:28.869Z,11.33
2023-04-29T11:43:00.812Z,14.00
2023-04-29T11:45:35.660Z,12.00
2023-04-29T11:48:06.952Z,10.50
2023-04-29T11:50:38.763Z,13.00
2023-04-29T11:53:12.594Z,13.50
2023-04-29T11:55:47.717Z,9.67
2023-04-29T11:58:23.049Z,11.00
2023-04-29T12:00:55.489Z,18.00
2023-04-29T12:03:26.625Z,13.00
2023-04-29T12:05:59.835Z,11.67
2023-04-29T12:08:34.978Z,12.67
2023-04-29T12:11:07.247Z,10.67
2023-04-29T12:13:38.945Z,10.00
2023-04-29T12:16:12.051Z,16.67
2023-04-29T12:18:44.113Z,11.00
2023-04-29T12:21:16.019Z,12.00
2023-04-29T12:23:47.658Z,7.00
2023-04-29T12:26:21.315Z,14.33
2023-04-29T12:28:59.161Z,20.67
2023-04-29T12:31:37.896Z,7.67
2023-04-29T12:34:10.216Z,11.50
2023-04-29T12:36:42.581Z,12.00
2023-04-29T12:39:18.009Z,12.00
2023-04-29T12:41:49.107Z,9.00
2023-04-29T12:44:20.932Z,11.33
2023-04-29T12:46:58.358Z,10.00
2023-04-29T12:49:29.550Z,12.00
2023-04-29T12:52:01.331Z,11.00
2023-04-29T12:54:36.751Z,18.00
2023-04-29T12:57:08.529Z,10.00
2023-04-29T12:59:43.383Z,11.00
2023-04-29T13:02:14.307Z,13.00
2023-04-29T13:04:46.396Z,11.00
2023-04-29T13:07:18.595Z,12.00
2023-04-29T13:09:50.342Z,11.00
2023-04-29T13:12:22.320Z,11.00
2023-04-29T13:14:57.814Z,11.00
2023-04-29T13:17:29.061Z,10.00
2023-04-29T13:20:00.814Z,9.00
2023-04-29T13:22:31.916Z,11.50
2023-04-29T13:25:04.902Z,9.00
2023-04-29T13:27:35.810Z,10.00
2023-04-29T13:30:09.055Z,10.00
2023-04-29T13:32:46.526Z,8.33
2023-04-29T13:35:25.436Z,10.33
2023-04-29T13:37:57.703Z,10.00
2023-04-29T13:40:28.738Z,9.00
2023-04-29T13:43:05.895Z,10.00
2023-04-29T13:45:43.800Z,6.67
2023-04-29T13:48:45.267Z,11.00
2023-04-29T13:57:11.039Z,11.00
2023-04-29T13:59:34.384Z,10.00
2023-04-29T14:04:37.016Z,8.00
2023-04-29T14:07:08.724Z,9.33
2023-04-29T14:09:41.232Z,10.33
2023-04-29T14:12:12.208Z,12.00
2023-04-29T14:14:43.930Z,11.00
2023-04-29T14:17:16.821Z,7.20
2023-04-29T14:19:47.683Z,10.00
2023-04-29T14:22:19.380Z,10.00
2023-04-29T14:24:51.881Z,9.00
2023-04-29T14:27:24.920Z,9.20
2023-04-29T14:29:55.762Z,7.50
2023-04-29T14:32:27.578Z,10.00
2023-04-29T14:34:59.340Z,9.33
2023-04-29T14:37:30.246Z,10.00
2023-04-29T14:40:01.970Z,8.00
2023-04-29T14:42:33.689Z,11.33
2023-04-29T14:45:05.628Z,7.67
2023-04-29T14:47:37.451Z,10.00
2023-04-29T14:50:09.087Z,11.00
2023-04-29T14:52:40.865Z,10.00
2023-04-29T14:55:12.620Z,10.00
2023-04-29T14:57:44.380Z,11.00
2023-04-29T15:00:16.156Z,10.00
2023-04-29T15:02:47.065Z,11.00
2023-04-29T15:05:18.965Z,9.67
2023-04-29T15:07:51.745Z,10.00
2023-04-29T15:10:23.507Z,10.00
2023-04-29T15:12:55.284Z,20.00
2023-04-29T15:15:27.704Z,11.00
2023-04-29T15:17:59.556Z,10.33
2023-04-29T15:20:32.687Z,16.67
2023-04-29T15:23:04.741Z,13.00
2023-04-29T15:25:36.670Z,11.00
2023-04-29T15:28:08.419Z,11.33
2023-04-29T15:30:39.323Z,9.00
2023-04-29T15:33:11.189Z,9.33
2023-04-29T15:35:43.260Z,11.00
2023-04-29T15:38:15.010Z,10.67
2023-04-29T15:40:46.690Z,10.00
2023-04-29T15:43:18.316Z,10.00
2023-04-29T15:45:50.163Z,12.00
2023-04-29T15:48:22.038Z,11.33
2023-04-29T15:50:53.882Z,11.00
2023-04-29T15:53:25.745Z,14.00
2023-04-29T15:55:57.871Z,9.33
2023-04-29T15:58:29.633Z,11.67
2023-04-29T16:01:01.426Z,12.00
2023-04-29T16:03:33.284Z,11.50
2023-04-29T16:06:04.508Z,12.50
2023-04-29T16:08:35.527Z,10.00
2023-04-29T16:11:07.486Z,12.00
2023-04-29T16:13:38.441Z,12.00
2023-04-29T16:16:10.469Z,11.50
2023-04-29T16:18:41.381Z,9.00
2023-04-29T16:21:13.817Z,12.00
2023-04-29T16:23:44.928Z,11.50
2023-04-29T16:26:17.409Z,13.50
2023-04-29T16:28:49.196Z,11.33
2023-04-29T16:31:20.973Z,13.33
2023-04-29T16:33:52.854Z,12.00
2023-04-29T16:36:25.008Z,11.50
2023-04-29T16:38:58.091Z,12.50
2023-04-29T16:41:29.972Z,10.00
2023-04-29T16:44:02.258Z,12.00
2023-04-29T16:46:34.521Z,10.67
2023-04-29T16:49:07.118Z,12.50
2023-04-29T16:51:38.974Z,15.00
2023-04-29T16:54:11.016Z,16.00
2023-04-29T16:56:42.879Z,14.67
2023-04-29T16:59:14.742Z,17.33
2023-04-29T17:01:47.366Z,16.00
2023-04-29T17:04:19.214Z,13.00
2023-04-29T17:06:51.057Z,12.33
2023-04-29T17:09:26.121Z,12.00
2023-04-29T17:11:58.671Z,13.50
2023-04-29T17:14:30.613Z,13.00
2023-04-29T17:17:01.622Z,12.00
2023-04-29T17:19:33.180Z,13.00
2023-04-29T17:22:05.270Z,13.00
2023-04-29T17:24:36.440Z,14.50
2023-04-29T17:27:08.459Z,13.50
2023-04-29T17:29:40.335Z,14.00
2023-04-29T17:32:15.553Z,15.00
2023-04-29T17:34:47.843Z,15.00
2023-04-29T17:37:25.050Z,15.00
2023-04-29T17:39:57.206Z,18.50
2023-04-29T17:42:30.114Z,30.00
2023-04-29T17:45:02.082Z,28.00
2023-04-29T17:47:35.689Z,36.00
2023-04-29T17:50:08.766Z,16.67
2023-04-29T17:52:40.563Z,16.00
2023-04-29T17:55:12.997Z,19.33
2023-04-29T17:57:44.842Z,17.67
2023-04-29T18:00:20.260Z,21.00
2023-04-29T18:02:52.376Z,25.00
2023-04-29T18:05:32.784Z,23.33
2023-04-29T18:08:05.220Z,29.33
2023-04-29T18:10:53.375Z,203.28
2023-04-29T18:13:27.320Z,90.00
2023-04-29T18:16:00.335Z,33.00
2023-04-29T18:18:32.121Z,26.00
2023-04-29T18:21:05.148Z,32.33
2023-04-29T18:23:37.770Z,31.67
2023-04-29T18:26:10.634Z,29.00
2023-04-29T18:28:44.381Z,27.33
2023-04-29T18:31:19.994Z,27.00
2023-04-29T18:33:52.801Z,26.67
2023-04-29T18:36:24.699Z,22.00
2023-04-29T18:38:57.182Z,21.67
2023-04-29T18:41:31.313Z,23.33
2023-04-29T18:44:03.412Z,24.00
2023-04-29T18:46:35.360Z,23.33
2023-04-29T18:49:08.804Z,22.00
2023-04-29T18:51:41.574Z,20.67
2023-04-29T18:54:15.527Z,21.00
2023-04-29T18:56:49.877Z,22.00
2023-04-29T18:59:21.712Z,20.67
2023-04-29T19:01:54.568Z,24.33
2023-04-29T19:04:26.568Z,26.00
2023-04-29T19:07:00.591Z,26.00
2023-04-29T19:09:33.378Z,25.33
2023-04-29T19:12:07.047Z,27.00
2023-04-29T19:14:40.152Z,44.50
2023-04-29T19:17:12.857Z,51.25
2023-04-29T19:19:45.645Z,61.67
2023-04-29T19:22:18.725Z,44.75
2023-04-29T19:24:51.495Z,54.75
2023-04-29T19:27:24.412Z,53.67
2023-04-29T19:29:58.124Z,52.00
2023-04-29T19:32:30.289Z,55.50
2023-04-29T19:35:01.418Z,52.00
2023-04-29T19:37:34.223Z,48.00
2023-04-29T19:40:06.576Z,53.00
2023-04-29T19:42:39.664Z,53.00
2023-04-29T19:45:13.000Z,52.25
2023-04-29T19:47:46.372Z,50.00
2023-04-29T19:50:20.043Z,50.25
2023-04-29T19:52:53.180Z,47.00
2023-04-29T19:55:25.993Z,46.00
2023-04-29T19:57:58.817Z,43.67
2023-04-29T20:00:31.685Z,40.00
2023-04-29T20:03:04.765Z,40.33
2023-04-29T20:05:36.633Z,38.67
2023-04-29T20:08:10.012Z,36.00
2023-04-29T20:10:42.766Z,36.50
2023-04-29T20:13:14.560Z,36.00
2023-04-29T20:15:47.695Z,36.00
2023-04-29T20:18:20.018Z,35.33
2023-04-29T20:20:52.833Z,38.00
2023-04-29T20:23:25.626Z,37.67
2023-04-29T20:25:58.618Z,35.00
2023-04-29T20:28:31.369Z,31.00
2023-04-29T20:31:04.038Z,29.00
2023-04-29T20:33:36.708Z,33.00
2023-04-29T20:36:08.724Z,32.00
2023-04-29T20:38:41.440Z,33.00
2023-04-29T20:41:14.177Z,41.00
2023-04-29T20:43:46.230Z,38.00
2023-04-29T20:46:19.462Z,38.33
2023-04-29T20:48:51.538Z,38.00
2023-04-29T20:51:23.454Z,35.00
2023-04-29T20:53:56.366Z,34.67
2023-04-29T20:56:29.127Z,28.00
2023-04-29T20:59:03.086Z,48.00
2023-04-29T21:01:37.803Z,40.33
2023-04-29T21:04:10.526Z,33.33
2023-04-29T21:06:42.570Z,31.00
2023-04-29T21:09:14.582Z,28.50
2023-04-29T21:11:47.473Z,20.00
2023-04-29T21:14:19.401Z,29.00
2023-04-29T21:16:51.277Z,28.50
2023-04-29T21:19:24.242Z,28.67
2023-04-29T21:21:56.856Z,28.00
2023-04-29T21:24:31.617Z,25.00
2023-04-29T21:27:04.195Z,27.00
2023-04-29T21:29:40.943Z,28.00
2023-04-29T21:32:14.830Z,29.67
2023-04-29T21:34:47.976Z,32.00
2023-04-29T21:37:19.843Z,34.67
2023-04-29T21:39:52.055Z,35.00
2023-04-29T21:42:26.475Z,35.33
2023-04-29T21:45:02.478Z,33.00
2023-04-29T21:47:35.626Z,34.00
2023-04-29T21:50:08.493Z,33.33
2023-04-29T21:52:41.667Z,33.00
2023-04-29T21:55:13.778Z,33.67
2023-04-29T21:57:46.470Z,32.67
2023-04-29T22:00:28.833Z,29.67
2023-04-29T22:03:01.862Z,28.33
2023-04-29T22:05:35.058Z,31.00
2023-04-29T22:08:09.208Z,29.00
2023-04-29T22:10:42.114Z,27.67
2023-04-29T22:13:14.667Z,24.00
2023-04-29T22:15:47.355Z,25.00
2023-04-29T22:18:20.041Z,25.67
2023-04-29T22:20:53.439Z,25.67
2023-04-29T22:23:25.438Z,24.00
2023-04-29T22:25:57.273Z,24.00
2023-04-29T22:28:29.864Z,25.00
2023-04-29T22:31:01.760Z,24.00
2023-04-29T22:33:35.248Z,26.00
2023-04-29T22:36:08.249Z,26.00
2023-04-29T22:38:40.945Z,28.00
2023-04-29T22:41:13.901Z,28.33
2023-04-29T22:43:45.957Z,27.50
2023-04-29T22:46:18.635Z,28.00
2023-04-29T22:48:51.301Z,27.00
2023-04-29T22:51:23.943Z,28.33
2023-04-29T22:53:56.550Z,28.00
2023-04-29T22:56:29.208Z,27.00
2023-04-29T22:59:00.147Z,28.50
2023-04-29T23:01:32.814Z,28.00
2023-04-29T23:04:04.691Z,25.00
2023-04-29T23:06:40.643Z,26.33
2023-04-29T23:09:12.709Z,24.67
2023-04-29T23:11:44.721Z,25.50
2023-04-29T23:14:17.468Z,25.00
2023-04-29T23:16:49.412Z,23.00
2023-04-29T23:19:21.259Z,23.00
2023-04-29T23:21:53.127Z,25.00
2023-04-29T23:24:25.727Z,25.00
2023-04-29T23:26:58.468Z,24.33
2023-04-29T23:29:34.351Z,24.00
2023-04-29T23:32:07.007Z,24.33
2023-04-29T23:34:38.884Z,24.00
2023-04-29T23:37:10.737Z,25.00
2023-04-29T23:39:43.295Z,24.33
2023-04-29T23:42:15.108Z,24.00
2023-04-29T23:44:47.848Z,25.67
2023-04-29T23:47:21.449Z,24.00
2023-04-29T23:49:53.348Z,24.00
2023-04-29T23:52:26.360Z,24.00
2023-04-29T23:54:58.186Z,22.33
2023-04-29T23:57:30.839Z,23.00
